sensor_id;sensor_type;location;lat;lon;timestamp;pressure;altitude;pressure_sealevel;temperature;humidity
63395;BME280;49531;-34.520;150.798;2023-03-26T00:01:00;100882.34;;;23.38;63.60
63395;BME280;49531;-34.520;150.798;2023-03-26T00:03:31;100879.06;;;23.46;63.63
63395;BME280;49531;-34.520;150.798;2023-03-26T00:06:08;100849.91;;;23.37;63.70
63395;BME280;49531;-34.520;150.798;2023-03-26T00:08:36;100874.13;;;23.64;63.61
63395;BME280;49531;-34.520;150.798;2023-03-26T00:11:05;100891.25;;;23.79;63.55
63395;BME280;49531;-34.520;150.798;2023-03-26T00:13:34;100841.16;;;23.55;63.50
63395;BME280;49531;-34.520;150.798;2023-03-26T00:16:01;100880.59;;;23.83;63.43
63395;BME280;49531;-34.520;150.798;2023-03-26T00:18:30;100885.75;;;23.94;63.11
63395;BME280;49531;-34.520;150.798;2023-03-26T00:20:58;100881.66;;;23.97;63.39
63395;BME280;49531;-34.520;150.798;2023-03-26T00:23:26;100881.38;;;23.99;63.29
63395;BME280;49531;-34.520;150.798;2023-03-26T00:25:54;100887.38;;;23.96;63.37
63395;BME280;49531;-34.520;150.798;2023-03-26T00:28:22;100883.03;;;23.94;62.66
63395;BME280;49531;-34.520;150.798;2023-03-26T00:31:03;100883.84;;;23.95;62.50
63395;BME280;49531;-34.520;150.798;2023-03-26T00:33:30;100832.41;;;23.63;62.63
63395;BME280;49531;-34.520;150.798;2023-03-26T00:35:59;100871.88;;;23.86;62.52
63395;BME280;49531;-34.520;150.798;2023-03-26T00:38:27;100875.94;;;23.93;62.68
63395;BME280;49531;-34.520;150.798;2023-03-26T00:40:59;100875.66;;;23.95;62.70
63395;BME280;49531;-34.520;150.798;2023-03-26T00:43:33;100860.13;;;23.85;62.48
63395;BME280;49531;-34.520;150.798;2023-03-26T00:46:01;100825.28;;;23.67;62.83
63395;BME280;49531;-34.520;150.798;2023-03-26T00:48:28;100867.47;;;23.90;62.31
63395;BME280;49531;-34.520;150.798;2023-03-26T00:50:56;100811.13;;;23.65;62.05
63395;BME280;49531;-34.520;150.798;2023-03-26T00:53:24;100866.38;;;23.96;62.36
63395;BME280;49531;-34.520;150.798;2023-03-26T00:55:51;100860.38;;;23.94;62.48
63395;BME280;49531;-34.520;150.798;2023-03-26T00:58:18;100862.00;;;23.95;62.60
63395;BME280;49531;-34.520;150.798;2023-03-26T01:00:54;100866.38;;;23.96;62.16
63395;BME280;49531;-34.520;150.798;2023-03-26T01:03:24;100863.91;;;23.94;62.61
63395;BME280;49531;-34.520;150.798;2023-03-26T01:06:02;100862.81;;;23.96;62.33
63395;BME280;49531;-34.520;150.798;2023-03-26T01:08:50;100852.50;;;23.87;62.24
63395;BME280;49531;-34.520;150.798;2023-03-26T01:11:26;100849.19;;;23.96;62.21
63395;BME280;49531;-34.520;150.798;2023-03-26T01:13:59;100851.91;;;23.96;62.30
63395;BME280;49531;-34.520;150.798;2023-03-26T01:19:29;100853.81;;;23.95;62.16
63395;BME280;49531;-34.520;150.798;2023-03-26T01:21:59;100851.09;;;23.95;62.43
63395;BME280;49531;-34.520;150.798;2023-03-26T01:24:26;100834.72;;;23.95;62.48
63395;BME280;49531;-34.520;150.798;2023-03-26T01:27:08;100775.19;;;23.53;62.34
63395;BME280;49531;-34.520;150.798;2023-03-26T01:29:51;100828.47;;;23.89;62.44
63395;BME280;49531;-34.520;150.798;2023-03-26T01:35:19;100811.59;;;23.82;62.54
63395;BME280;49531;-34.520;150.798;2023-03-26T01:38:09;100769.19;;;23.56;62.47
63395;BME280;49531;-34.520;150.798;2023-03-26T01:40:44;100787.13;;;23.67;62.28
63395;BME280;49531;-34.520;150.798;2023-03-26T01:43:31;100812.66;;;23.86;62.36
63395;BME280;49531;-34.520;150.798;2023-03-26T01:46:05;100800.97;;;23.81;62.40
63395;BME280;49531;-34.520;150.798;2023-03-26T01:48:39;100796.31;;;23.81;62.32
63395;BME280;49531;-34.520;150.798;2023-03-26T01:51:08;100807.22;;;23.86;61.77
63395;BME280;49531;-34.520;150.798;2023-03-26T01:53:41;100748.75;;;23.53;61.69
63395;BME280;49531;-34.520;150.798;2023-03-26T01:56:24;100748.41;;;23.60;61.79
63395;BME280;49531;-34.520;150.798;2023-03-26T01:59:17;100749.50;;;23.64;61.64
63395;BME280;49531;-34.520;150.798;2023-03-26T02:02:16;100765.25;;;23.77;61.37
63395;BME280;49531;-34.520;150.798;2023-03-26T02:04:52;100784.25;;;23.92;61.47
63395;BME280;49531;-34.520;150.798;2023-03-26T02:07:26;100775.25;;;23.92;61.58
63395;BME280;49531;-34.520;150.798;2023-03-26T02:10:07;100759.78;;;23.77;61.22
63395;BME280;49531;-34.520;150.798;2023-03-26T02:12:37;100704.84;;;23.50;61.31
63395;BME280;49531;-34.520;150.798;2023-03-26T02:15:05;100768.19;;;23.86;61.24
63395;BME280;49531;-34.520;150.798;2023-03-26T02:17:32;100723.00;;;23.70;60.51
63395;BME280;49531;-34.520;150.798;2023-03-26T02:19:59;100759.22;;;23.85;60.49
63395;BME280;49531;-34.520;150.798;2023-03-26T02:22:37;100758.94;;;23.87;60.19
63395;BME280;49531;-34.520;150.798;2023-03-26T02:25:08;100761.38;;;23.88;60.11
63395;BME280;49531;-34.520;150.798;2023-03-26T02:27:37;100761.94;;;23.85;60.70
63395;BME280;49531;-34.520;150.798;2023-03-26T02:30:09;100748.88;;;23.77;60.60
63395;BME280;49531;-34.520;150.798;2023-03-26T02:32:36;100761.94;;;23.85;61.13
63395;BME280;49531;-34.520;150.798;2023-03-26T02:35:04;100692.56;;;23.52;61.57
63395;BME280;49531;-34.520;150.798;2023-03-26T02:37:32;100757.00;;;23.87;62.20
63395;BME280;49531;-34.520;150.798;2023-03-26T02:40:00;100736.31;;;23.81;62.29
63395;BME280;49531;-34.520;150.798;2023-03-26T02:42:27;100737.91;;;23.87;62.06
63395;BME280;49531;-34.520;150.798;2023-03-26T02:44:54;100722.69;;;23.81;63.07
63395;BME280;49531;-34.520;150.798;2023-03-26T02:47:21;100702.00;;;23.70;62.63
63395;BME280;49531;-34.520;150.798;2023-03-26T02:49:49;100722.06;;;23.94;62.79
63395;BME280;49531;-34.520;150.798;2023-03-26T02:52:16;100683.16;;;23.74;62.88
63395;BME280;49531;-34.520;150.798;2023-03-26T02:54:44;100686.13;;;23.82;63.52
63395;BME280;49531;-34.520;150.798;2023-03-26T02:57:12;100707.88;;;23.92;63.43
63395;BME280;49531;-34.520;150.798;2023-03-26T02:59:39;100675.00;;;23.74;63.41
63395;BME280;49531;-34.520;150.798;2023-03-26T03:02:06;100667.88;;;23.78;62.70
63395;BME280;49531;-34.520;150.798;2023-03-26T03:04:33;100704.53;;;24.01;62.69
63395;BME280;49531;-34.520;150.798;2023-03-26T03:07:00;100697.69;;;24.03;62.14
63395;BME280;49531;-34.520;150.798;2023-03-26T03:09:27;100680.75;;;24.06;62.07
63395;BME280;49531;-34.520;150.798;2023-03-26T03:11:54;100664.13;;;24.03;62.38
63395;BME280;49531;-34.520;150.798;2023-03-26T03:14:21;100671.22;;;24.04;63.02
63395;BME280;49531;-34.520;150.798;2023-03-26T03:16:48;100637.56;;;23.84;63.01
63395;BME280;49531;-34.520;150.798;2023-03-26T03:19:15;100674.97;;;24.13;62.42
63395;BME280;49531;-34.520;150.798;2023-03-26T03:21:42;100681.22;;;24.13;61.75
63395;BME280;49531;-34.520;150.798;2023-03-26T03:24:10;100632.03;;;23.94;61.63
63395;BME280;49531;-34.520;150.798;2023-03-26T03:26:39;100642.53;;;24.06;61.31
63395;BME280;49531;-34.520;150.798;2023-03-26T03:29:08;100652.81;;;24.19;61.43
63395;BME280;49531;-34.520;150.798;2023-03-26T03:31:37;100634.34;;;24.06;61.49
63395;BME280;49531;-34.520;150.798;2023-03-26T03:34:04;100651.41;;;24.22;61.39
63395;BME280;49531;-34.520;150.798;2023-03-26T03:36:31;100653.84;;;24.23;61.06
63395;BME280;49531;-34.520;150.798;2023-03-26T03:38:58;100659.31;;;24.23;61.12
63395;BME280;49531;-34.520;150.798;2023-03-26T03:41:28;100634.34;;;24.06;61.33
63395;BME280;49531;-34.520;150.798;2023-03-26T03:43:55;100621.03;;;24.00;60.95
63395;BME280;49531;-34.520;150.798;2023-03-26T03:46:24;100628.09;;;24.06;60.43
63395;BME280;49531;-34.520;150.798;2023-03-26T03:48:51;100655.25;;;24.21;60.46
63395;BME280;49531;-34.520;150.798;2023-03-26T03:51:18;100593.66;;;23.81;60.81
63395;BME280;49531;-34.520;150.798;2023-03-26T03:53:46;100619.44;;;23.99;60.81
63395;BME280;49531;-34.520;150.798;2023-03-26T03:56:15;100651.69;;;24.20;61.03
63395;BME280;49531;-34.520;150.798;2023-03-26T03:58:44;100600.94;;;23.90;59.65
63395;BME280;49531;-34.520;150.798;2023-03-26T04:01:12;100592.78;;;23.90;60.19
63395;BME280;49531;-34.520;150.798;2023-03-26T04:03:40;100614.78;;;23.99;60.15
63395;BME280;49531;-34.520;150.798;2023-03-26T04:06:12;100625.78;;;24.18;60.52
63395;BME280;49531;-34.520;150.798;2023-03-26T04:08:39;100632.06;;;24.18;59.90
63395;BME280;49531;-34.520;150.798;2023-03-26T04:11:06;100630.16;;;24.19;60.61
63395;BME280;49531;-34.520;150.798;2023-03-26T04:13:33;100601.94;;;24.00;60.49
63395;BME280;49531;-34.520;150.798;2023-03-26T04:16:00;100563.94;;;23.79;60.49
63395;BME280;49531;-34.520;150.798;2023-03-26T04:18:27;100573.19;;;23.83;60.02
63395;BME280;49531;-34.520;150.798;2023-03-26T04:20:55;100642.34;;;24.32;60.10
63395;BME280;49531;-34.520;150.798;2023-03-26T04:23:28;100628.75;;;24.26;60.12
63395;BME280;49531;-34.520;150.798;2023-03-26T04:25:56;100606.22;;;24.11;60.10
63395;BME280;49531;-34.520;150.798;2023-03-26T04:28:38;100612.09;;;24.23;59.75
63395;BME280;49531;-34.520;150.798;2023-03-26T04:31:15;100612.03;;;24.33;59.10
63395;BME280;49531;-34.520;150.798;2023-03-26T04:33:45;100604.19;;;24.26;59.28
63395;BME280;49531;-34.520;150.798;2023-03-26T04:36:14;100577.56;;;24.08;59.29
63395;BME280;49531;-34.520;150.798;2023-03-26T04:38:44;100573.50;;;24.06;59.58
63395;BME280;49531;-34.520;150.798;2023-03-26T04:41:14;100588.75;;;24.12;59.37
63395;BME280;49531;-34.520;150.798;2023-03-26T04:43:41;100600.66;;;24.26;59.74
63395;BME280;49531;-34.520;150.798;2023-03-26T04:46:13;100614.78;;;24.33;59.89
63395;BME280;49531;-34.520;150.798;2023-03-26T04:48:40;100600.41;;;24.17;59.95
63395;BME280;49531;-34.520;150.798;2023-03-26T04:51:07;100625.44;;;24.30;59.56
63395;BME280;49531;-34.520;150.798;2023-03-26T04:53:35;100612.66;;;24.25;59.76
63395;BME280;49531;-34.520;150.798;2023-03-26T04:58:49;100620.22;;;24.33;59.43
63395;BME280;49531;-34.520;150.798;2023-03-26T05:01:17;100611.28;;;24.22;59.31
63395;BME280;49531;-34.520;150.798;2023-03-26T05:03:45;100623.25;;;24.32;59.46
63395;BME280;49531;-34.520;150.798;2023-03-26T05:06:12;100534.56;;;23.71;59.43
63395;BME280;49531;-34.520;150.798;2023-03-26T05:08:39;100611.56;;;24.26;59.67
63395;BME280;49531;-34.520;150.798;2023-03-26T05:11:09;100630.78;;;24.40;59.62
63395;BME280;49531;-34.520;150.798;2023-03-26T05:13:37;100625.84;;;24.42;60.31
63395;BME280;49531;-34.520;150.798;2023-03-26T05:16:04;100621.19;;;24.42;59.98
63395;BME280;49531;-34.520;150.798;2023-03-26T05:18:31;100583.22;;;24.17;59.78
63395;BME280;49531;-34.520;150.798;2023-03-26T05:20:59;100585.38;;;24.25;58.65
63395;BME280;49531;-34.520;150.798;2023-03-26T05:23:26;100616.50;;;24.48;59.14
63395;BME280;49531;-34.520;150.798;2023-03-26T05:25:53;100611.34;;;24.46;58.92
63395;BME280;49531;-34.520;150.798;2023-03-26T05:28:20;100618.94;;;24.49;58.72
63395;BME280;49531;-34.520;150.798;2023-03-26T05:30:51;100503.84;;;23.89;58.63
63395;BME280;49531;-34.520;150.798;2023-03-26T05:33:20;100601.47;;;24.50;58.87
63395;BME280;49531;-34.520;150.798;2023-03-26T05:35:47;100608.84;;;24.50;58.61
63395;BME280;49531;-34.520;150.798;2023-03-26T05:38:24;100597.41;;;24.48;58.79
63395;BME280;49531;-34.520;150.798;2023-03-26T05:40:57;100600.13;;;24.48;59.20
63395;BME280;49531;-34.520;150.798;2023-03-26T05:43:25;100570.56;;;24.31;58.78
63395;BME280;49531;-34.520;150.798;2023-03-26T05:45:52;100596.81;;;24.51;58.66
63395;BME280;49531;-34.520;150.798;2023-03-26T05:48:20;100576.50;;;24.38;58.80
63395;BME280;49531;-34.520;150.798;2023-03-26T05:50:49;100564.34;;;24.25;58.30
63395;BME280;49531;-34.520;150.798;2023-03-26T05:53:17;100596.06;;;24.45;58.16
63395;BME280;49531;-34.520;150.798;2023-03-26T05:55:48;100593.75;;;24.34;58.10
63395;BME280;49531;-34.520;150.798;2023-03-26T05:58:21;100562.22;;;24.17;58.51
63395;BME280;49531;-34.520;150.798;2023-03-26T06:00:48;100590.97;;;24.39;58.61
63395;BME280;49531;-34.520;150.798;2023-03-26T06:03:15;100552.69;;;24.15;58.51
63395;BME280;49531;-34.520;150.798;2023-03-26T06:05:42;100596.91;;;24.41;58.53
63395;BME280;49531;-34.520;150.798;2023-03-26T06:08:09;100595.81;;;24.42;58.25
63395;BME280;49531;-34.520;150.798;2023-03-26T06:10:37;100568.44;;;24.23;58.19
63395;BME280;49531;-34.520;150.798;2023-03-26T06:13:04;100588.25;;;24.39;58.29
63395;BME280;49531;-34.520;150.798;2023-03-26T06:15:32;100562.22;;;24.17;58.65
63395;BME280;49531;-34.520;150.798;2023-03-26T06:17:59;100592.28;;;24.41;58.76
63395;BME280;49531;-34.520;150.798;2023-03-26T06:20:26;100567.66;;;24.17;58.80
63395;BME280;49531;-34.520;150.798;2023-03-26T06:22:53;100573.59;;;24.24;59.11
63395;BME280;49531;-34.520;150.798;2023-03-26T06:25:20;100545.94;;;24.07;59.39
63395;BME280;49531;-34.520;150.798;2023-03-26T06:27:47;100543.16;;;24.12;59.32
63395;BME280;49531;-34.520;150.798;2023-03-26T06:30:15;100569.75;;;24.31;59.60
63395;BME280;49531;-34.520;150.798;2023-03-26T06:32:43;100589.53;;;24.41;60.17
63395;BME280;49531;-34.520;150.798;2023-03-26T06:35:10;100584.09;;;24.41;59.90
63395;BME280;49531;-34.520;150.798;2023-03-26T06:37:37;100570.06;;;24.24;60.17
63395;BME280;49531;-34.520;150.798;2023-03-26T06:40:04;100560.81;;;24.20;60.23
63395;BME280;49531;-34.520;150.798;2023-03-26T06:42:31;100488.19;;;23.71;60.57
63395;BME280;49531;-34.520;150.798;2023-03-26T06:44:59;100582.47;;;24.40;60.76
63395;BME280;49531;-34.520;150.798;2023-03-26T06:47:26;100585.19;;;24.40;60.63
63395;BME280;49531;-34.520;150.798;2023-03-26T06:49:53;100552.09;;;24.18;61.05
63395;BME280;49531;-34.520;150.798;2023-03-26T06:52:20;100583.78;;;24.43;61.17
63395;BME280;49531;-34.520;150.798;2023-03-26T06:54:47;100527.13;;;24.06;61.66
63395;BME280;49531;-34.520;150.798;2023-03-26T06:57:14;100588.44;;;24.42;61.79
63395;BME280;49531;-34.520;150.798;2023-03-26T06:59:41;100596.06;;;24.45;61.78
63395;BME280;49531;-34.520;150.798;2023-03-26T07:02:10;100595.53;;;24.43;61.41
63395;BME280;49531;-34.520;150.798;2023-03-26T07:04:37;100605.13;;;24.41;61.77
63395;BME280;49531;-34.520;150.798;2023-03-26T07:07:05;100613.59;;;24.39;62.06
63395;BME280;49531;-34.520;150.798;2023-03-26T07:09:32;100614.41;;;24.40;62.41
63395;BME280;49531;-34.520;150.798;2023-03-26T07:11:59;100608.66;;;24.41;62.25
63395;BME280;49531;-34.520;150.798;2023-03-26T07:14:26;100598.03;;;24.40;62.35
63395;BME280;49531;-34.520;150.798;2023-03-26T07:16:57;100599.44;;;24.37;62.40
63395;BME280;49531;-34.520;150.798;2023-03-26T07:19:25;100607.34;;;24.39;62.13
63395;BME280;49531;-34.520;150.798;2023-03-26T07:21:52;100614.19;;;24.36;62.53
63395;BME280;49531;-34.520;150.798;2023-03-26T07:24:19;100612.56;;;24.35;62.46
63395;BME280;49531;-34.520;150.798;2023-03-26T07:26:55;100623.19;;;24.37;62.66
63395;BME280;49531;-34.520;150.798;2023-03-26T07:29:44;100601.16;;;24.28;62.44
63395;BME280;49531;-34.520;150.798;2023-03-26T07:32:22;100615.28;;;24.35;62.50
63395;BME280;49531;-34.520;150.798;2023-03-26T07:34:59;100597.91;;;24.26;62.42
63395;BME280;49531;-34.520;150.798;2023-03-26T07:37:42;100607.41;;;24.34;62.84
63395;BME280;49531;-34.520;150.798;2023-03-26T07:40:35;100613.44;;;24.31;62.55
63395;BME280;49531;-34.520;150.798;2023-03-26T07:43:39;100586.88;;;24.07;62.80
63395;BME280;49531;-34.520;150.798;2023-03-26T07:46:11;100602.56;;;24.20;63.23
63395;BME280;49531;-34.520;150.798;2023-03-26T07:48:40;100605.84;;;24.22;63.37
63395;BME280;49531;-34.520;150.798;2023-03-26T07:51:09;100574.16;;;23.98;63.47
63395;BME280;49531;-34.520;150.798;2023-03-26T07:53:36;100615.41;;;24.25;63.49
63395;BME280;49531;-34.520;150.798;2023-03-26T07:56:15;100608.31;;;24.19;64.13
63395;BME280;49531;-34.520;150.798;2023-03-26T07:59:01;100608.91;;;24.16;64.15
63395;BME280;49531;-34.520;150.798;2023-03-26T08:01:51;100608.94;;;24.11;64.05
63395;BME280;49531;-34.520;150.798;2023-03-26T08:04:43;100609.47;;;24.13;64.26
63395;BME280;49531;-34.520;150.798;2023-03-26T08:07:25;100557.06;;;23.87;64.09
63395;BME280;49531;-34.520;150.798;2023-03-26T08:10:05;100611.88;;;24.19;64.17
63395;BME280;49531;-34.520;150.798;2023-03-26T08:12:54;100577.38;;;24.00;64.42
63395;BME280;49531;-34.520;150.798;2023-03-26T08:15:36;100602.91;;;24.14;64.06
63395;BME280;49531;-34.520;150.798;2023-03-26T08:18:20;100605.59;;;24.19;64.31
63395;BME280;49531;-34.520;150.798;2023-03-26T08:21:03;100613.50;;;24.20;64.56
63395;BME280;49531;-34.520;150.798;2023-03-26T08:26:34;100580.03;;;23.81;64.95
63395;BME280;49531;-34.520;150.798;2023-03-26T08:29:28;100555.88;;;23.64;65.09
63395;BME280;49531;-34.520;150.798;2023-03-26T08:32:01;100628.03;;;24.11;64.98
63395;BME280;49531;-34.520;150.798;2023-03-26T08:34:30;100636.28;;;24.06;65.36
63395;BME280;49531;-34.520;150.798;2023-03-26T08:36:57;100532.41;;;23.29;65.30
63395;BME280;49531;-34.520;150.798;2023-03-26T08:39:25;100626.31;;;23.91;65.14
63395;BME280;49531;-34.520;150.798;2023-03-26T08:42:17;100648.81;;;24.07;64.80
63395;BME280;49531;-34.520;150.798;2023-03-26T08:48:14;100606.16;;;23.87;64.84
63395;BME280;49531;-34.520;150.798;2023-03-26T08:53:59;100593.13;;;23.79;64.66
63395;BME280;49531;-34.520;150.798;2023-03-26T08:56:53;100581.16;;;23.75;64.46
63395;BME280;49531;-34.520;150.798;2023-03-26T09:00:02;100648.19;;;24.15;64.52
63395;BME280;49531;-34.520;150.798;2023-03-26T09:05:58;100667.31;;;24.15;64.34
63395;BME280;49531;-34.520;150.798;2023-03-26T09:08:55;100660.75;;;24.16;64.61
63395;BME280;49531;-34.520;150.798;2023-03-26T09:11:49;100631.16;;;23.99;64.40
63395;BME280;49531;-34.520;150.798;2023-03-26T09:14:52;100644.00;;;23.99;64.29
63395;BME280;49531;-34.520;150.798;2023-03-26T09:17:44;100644.56;;;23.96;64.30
63395;BME280;49531;-34.520;150.798;2023-03-26T09:23:49;100628.00;;;23.87;64.25
63395;BME280;49531;-34.520;150.798;2023-03-26T09:26:44;100663.31;;;24.02;64.19
63395;BME280;49531;-34.520;150.798;2023-03-26T09:32:41;100576.16;;;23.48;63.91
63395;BME280;49531;-34.520;150.798;2023-03-26T09:38:35;100700.34;;;24.13;63.84
63395;BME280;49531;-34.520;150.798;2023-03-26T09:41:15;100703.06;;;24.13;63.61
63395;BME280;49531;-34.520;150.798;2023-03-26T09:44:07;100669.19;;;23.85;63.55
63395;BME280;49531;-34.520;150.798;2023-03-26T09:46:54;100700.34;;;24.13;63.77
63395;BME280;49531;-34.520;150.798;2023-03-26T09:49:40;100698.44;;;24.14;63.71
63395;BME280;49531;-34.520;150.798;2023-03-26T09:52:29;100663.97;;;23.89;63.32
63395;BME280;49531;-34.520;150.798;2023-03-26T09:55:22;100706.06;;;24.12;63.54
63395;BME280;49531;-34.520;150.798;2023-03-26T09:58:19;100684.09;;;23.98;63.20
63395;BME280;49531;-34.520;150.798;2023-03-26T10:01:19;100684.09;;;23.98;63.57
63395;BME280;49531;-34.520;150.798;2023-03-26T10:04:00;100696.53;;;24.09;63.61
63395;BME280;49531;-34.520;150.798;2023-03-26T10:07:04;100698.75;;;24.07;63.42
63395;BME280;49531;-34.520;150.798;2023-03-26T10:09:48;100643.91;;;23.70;63.47
63395;BME280;49531;-34.520;150.798;2023-03-26T10:12:34;100535.03;;;23.05;63.45
63395;BME280;49531;-34.520;150.798;2023-03-26T10:18:09;100696.94;;;23.98;63.24
63395;BME280;49531;-34.520;150.798;2023-03-26T10:20:51;100711.28;;;24.08;63.35
63395;BME280;49531;-34.520;150.798;2023-03-26T10:29:35;100619.75;;;23.58;63.46
63395;BME280;49531;-34.520;150.798;2023-03-26T10:35:35;100652.06;;;23.75;63.49
63395;BME280;49531;-34.520;150.798;2023-03-26T10:38:22;100684.72;;;23.90;63.25
63395;BME280;49531;-34.520;150.798;2023-03-26T10:41:02;100692.56;;;23.97;63.25
63395;BME280;49531;-34.520;150.798;2023-03-26T10:43:50;100643.38;;;23.68;63.27
63395;BME280;49531;-34.520;150.798;2023-03-26T10:46:37;100660.47;;;23.83;63.17
63395;BME280;49531;-34.520;150.798;2023-03-26T10:49:25;100684.59;;;24.00;63.53
63395;BME280;49531;-34.520;150.798;2023-03-26T10:51:58;100605.06;;;23.49;63.17
63395;BME280;49531;-34.520;150.798;2023-03-26T10:54:37;100665.94;;;23.83;63.39
63395;BME280;49531;-34.520;150.798;2023-03-26T10:57:22;100590.16;;;23.36;63.18
63395;BME280;49531;-34.520;150.798;2023-03-26T10:59:56;100674.59;;;23.90;63.17
63395;BME280;49531;-34.520;150.798;2023-03-26T11:02:29;100579.56;;;23.29;63.25
63395;BME280;49531;-34.520;150.798;2023-03-26T11:05:13;100632.19;;;23.69;63.33
63395;BME280;49531;-34.520;150.798;2023-03-26T11:07:56;100677.31;;;23.96;63.29
63395;BME280;49531;-34.520;150.798;2023-03-26T11:10:39;100654.22;;;23.78;63.42
63395;BME280;49531;-34.520;150.798;2023-03-26T11:13:28;100648.53;;;23.74;63.50
63395;BME280;49531;-34.520;150.798;2023-03-26T11:16:24;100651.19;;;23.84;63.50
63395;BME280;49531;-34.520;150.798;2023-03-26T11:19:10;100623.50;;;23.67;63.38
63395;BME280;49531;-34.520;150.798;2023-03-26T11:22:16;100643.56;;;23.81;63.21
63395;BME280;49531;-34.520;150.798;2023-03-26T11:24:46;100633.50;;;23.77;63.38
63395;BME280;49531;-34.520;150.798;2023-03-26T11:30:20;100648.66;;;23.93;63.78
63395;BME280;49531;-34.520;150.798;2023-03-26T11:32:57;100627.22;;;23.81;63.61
63395;BME280;49531;-34.520;150.798;2023-03-26T11:35:30;100639.16;;;23.90;63.50
63395;BME280;49531;-34.520;150.798;2023-03-26T11:38:05;100646.22;;;23.91;63.71
63395;BME280;49531;-34.520;150.798;2023-03-26T11:40:40;100616.41;;;23.66;63.73
63395;BME280;49531;-34.520;150.798;2023-03-26T11:43:11;100663.16;;;23.88;63.84
63395;BME280;49531;-34.520;150.798;2023-03-26T11:45:44;100651.22;;;23.79;63.67
63395;BME280;49531;-34.520;150.798;2023-03-26T11:48:25;100635.44;;;23.76;63.91
63395;BME280;49531;-34.520;150.798;2023-03-26T11:50:59;100642.69;;;23.91;63.64
63395;BME280;49531;-34.520;150.798;2023-03-26T11:53:33;100643.50;;;23.91;63.62
63395;BME280;49531;-34.520;150.798;2023-03-26T11:56:23;100636.94;;;23.92;63.47
63395;BME280;49531;-34.520;150.798;2023-03-26T11:59:03;100636.94;;;23.92;63.41
63395;BME280;49531;-34.520;150.798;2023-03-26T12:01:42;100635.31;;;23.91;63.83
63395;BME280;49531;-34.520;150.798;2023-03-26T12:04:13;100631.50;;;23.92;63.33
63395;BME280;49531;-34.520;150.798;2023-03-26T12:06:53;100605.72;;;23.75;63.41
63395;BME280;49531;-34.520;150.798;2023-03-26T12:09:23;100630.97;;;23.90;63.87
63395;BME280;49531;-34.520;150.798;2023-03-26T12:11:55;100578.25;;;23.61;63.58
63395;BME280;49531;-34.520;150.798;2023-03-26T12:14:27;100589.09;;;23.71;63.55
63395;BME280;49531;-34.520;150.798;2023-03-26T12:16:59;100613.25;;;23.88;63.81
63395;BME280;49531;-34.520;150.798;2023-03-26T12:19:26;100606.16;;;23.87;63.62
63395;BME280;49531;-34.520;150.798;2023-03-26T12:21:59;100605.34;;;23.86;63.55
63395;BME280;49531;-34.520;150.798;2023-03-26T12:24:29;100600.47;;;23.83;63.63
63395;BME280;49531;-34.520;150.798;2023-03-26T12:27:05;100602.63;;;23.86;63.86
63395;BME280;49531;-34.520;150.798;2023-03-26T12:29:50;100576.00;;;23.73;63.61
63395;BME280;49531;-34.520;150.798;2023-03-26T12:32:20;100510.31;;;23.31;63.66
63395;BME280;49531;-34.520;150.798;2023-03-26T12:34:47;100596.09;;;23.82;63.89
63395;BME280;49531;-34.520;150.798;2023-03-26T12:37:32;100602.66;;;23.81;64.03
63395;BME280;49531;-34.520;150.798;2023-03-26T12:40:07;100588.53;;;23.74;63.85
63395;BME280;49531;-34.520;150.798;2023-03-26T12:42:39;100554.59;;;23.51;63.67
63395;BME280;49531;-34.520;150.798;2023-03-26T12:45:12;100571.44;;;23.64;63.79
63395;BME280;49531;-34.520;150.798;2023-03-26T12:47:39;100598.03;;;23.82;63.87
63395;BME280;49531;-34.520;150.798;2023-03-26T12:50:12;100577.09;;;23.72;64.00
63395;BME280;49531;-34.520;150.798;2023-03-26T12:52:59;100560.00;;;23.61;63.98
63395;BME280;49531;-34.520;150.798;2023-03-26T12:55:50;100553.72;;;23.61;63.83
63395;BME280;49531;-34.520;150.798;2023-03-26T12:58:42;100421.03;;;22.83;64.03
63395;BME280;49531;-34.520;150.798;2023-03-26T13:01:37;100557.41;;;23.80;63.60
63395;BME280;49531;-34.520;150.798;2023-03-26T13:07:14;100551.94;;;23.80;64.06
63395;BME280;49531;-34.520;150.798;2023-03-26T13:10:22;100547.88;;;23.78;64.13
63395;BME280;49531;-34.520;150.798;2023-03-26T13:15:55;100527.75;;;23.69;63.98
63395;BME280;49531;-34.520;150.798;2023-03-26T13:18:46;100552.50;;;23.77;63.68
63395;BME280;49531;-34.520;150.798;2023-03-26T13:21:30;100501.47;;;23.54;63.88
63395;BME280;49531;-34.520;150.798;2023-03-26T13:24:41;100471.03;;;23.37;63.86
63395;BME280;49531;-34.520;150.798;2023-03-26T13:27:21;100522.84;;;23.71;64.03
63395;BME280;49531;-34.520;150.798;2023-03-26T13:33:19;100535.31;;;23.77;63.72
63395;BME280;49531;-34.520;150.798;2023-03-26T13:36:02;100478.88;;;23.43;64.08
63395;BME280;49531;-34.520;150.798;2023-03-26T13:38:44;100403.53;;;22.94;63.87
63395;BME280;49531;-34.520;150.798;2023-03-26T13:41:28;100528.53;;;23.74;64.09
63395;BME280;49531;-34.520;150.798;2023-03-26T13:44:14;100500.38;;;23.55;64.10
63395;BME280;49531;-34.520;150.798;2023-03-26T13:46:48;100513.88;;;23.65;64.04
63395;BME280;49531;-34.520;150.798;2023-03-26T13:49:39;100462.84;;;23.37;64.19
63395;BME280;49531;-34.520;150.798;2023-03-26T13:55:27;100499.63;;;23.73;64.16
63395;BME280;49531;-34.520;150.798;2023-03-26T13:58:02;100493.16;;;23.64;64.24